createdAt,value
2017-08-25T00:01:38.158Z,23.10
2017-08-25T00:04:12.469Z,23.10
2017-08-25T00:06:46.786Z,23.20
2017-08-25T00:09:21.362Z,23.30
2017-08-25T00:11:55.989Z,23.30
2017-08-25T00:14:30.661Z,23.30
2017-08-25T00:17:05.186Z,23.40
2017-08-25T00:19:39.818Z,23.40
2017-08-25T00:22:14.398Z,23.40
2017-08-25T00:24:48.854Z,23.40
2017-08-25T00:27:23.507Z,23.40
2017-08-25T00:29:57.934Z,23.40
2017-08-25T00:32:32.541Z,23.40
2017-08-25T00:35:08.065Z,23.40
2017-08-25T00:37:42.619Z,23.40
2017-08-25T00:40:17.189Z,23.40
2017-08-25T00:42:51.761Z,23.40
2017-08-25T00:45:33.018Z,23.40
2017-08-25T00:48:07.618Z,23.40
2017-08-25T00:50:42.362Z,23.40
2017-08-25T00:53:16.928Z,23.40
2017-08-25T00:55:51.558Z,23.30
2017-08-25T00:58:25.998Z,23.30
2017-08-25T01:01:00.535Z,23.40
2017-08-25T01:03:35.186Z,23.40
2017-08-25T01:06:09.266Z,23.30
2017-08-25T01:08:43.842Z,23.40
2017-08-25T01:11:18.441Z,23.40
2017-08-25T01:13:52.921Z,23.40
2017-08-25T01:16:27.478Z,23.40
2017-08-25T01:19:02.033Z,23.40
2017-08-25T01:21:36.646Z,23.40
2017-08-25T01:24:10.546Z,23.40
2017-08-25T01:26:44.340Z,23.40
2017-08-25T01:29:18.506Z,23.30
2017-08-25T01:31:53.057Z,23.20
2017-08-25T01:34:27.010Z,23.20
2017-08-25T01:37:00.722Z,23.10
2017-08-25T01:39:36.618Z,23.10
2017-08-25T01:42:10.810Z,23.10
2017-08-25T01:44:44.774Z,23.20
2017-08-25T01:47:19.021Z,23.20
2017-08-25T01:49:52.961Z,23.20
2017-08-25T01:52:27.476Z,23.20
2017-08-25T01:55:01.353Z,23.30
2017-08-25T01:57:35.311Z,23.30
2017-08-25T02:00:09.406Z,23.30
2017-08-25T02:02:43.947Z,23.30
2017-08-25T02:05:18.476Z,23.20
2017-08-25T02:07:52.915Z,23.20
2017-08-25T02:10:27.441Z,23.20
2017-08-25T02:13:01.985Z,23.20
2017-08-25T02:15:36.537Z,23.10
2017-08-25T02:18:10.966Z,23.00
2017-08-25T02:20:45.769Z,23.10
2017-08-25T02:23:20.445Z,23.10
2017-08-25T02:25:54.960Z,23.00
2017-08-25T02:28:29.397Z,23.00
2017-08-25T02:31:03.946Z,22.90
2017-08-25T02:33:38.549Z,22.80
2017-08-25T02:36:13.102Z,22.80
2017-08-25T02:38:47.645Z,22.80
2017-08-25T02:41:22.246Z,22.80
2017-08-25T02:43:56.940Z,22.80
2017-08-25T02:46:31.635Z,22.80
2017-08-25T02:49:06.117Z,22.80
2017-08-25T02:51:40.779Z,22.80
2017-08-25T02:54:15.282Z,22.80
2017-08-25T02:56:49.732Z,22.80
2017-08-25T02:59:24.165Z,22.80
2017-08-25T03:01:58.741Z,22.70
2017-08-25T03:04:33.290Z,22.60
2017-08-25T03:07:07.855Z,22.60
2017-08-25T03:09:42.258Z,22.50
2017-08-25T03:12:16.862Z,22.50
2017-08-25T03:14:51.429Z,22.60
2017-08-25T03:17:26.022Z,22.60
2017-08-25T03:20:00.622Z,22.70
2017-08-25T03:22:35.205Z,22.70
2017-08-25T03:25:09.447Z,22.70
2017-08-25T03:27:43.877Z,22.70
2017-08-25T03:30:18.474Z,22.80
2017-08-25T03:32:52.905Z,22.80
2017-08-25T03:35:27.450Z,22.80
2017-08-25T03:38:02.025Z,22.90
2017-08-25T03:40:36.565Z,22.90
2017-08-25T03:43:11.197Z,22.90
2017-08-25T03:45:45.764Z,22.90
2017-08-25T03:48:20.297Z,22.90
2017-08-25T03:50:54.966Z,23.00
2017-08-25T03:53:29.422Z,23.00
2017-08-25T03:56:04.006Z,22.90
2017-08-25T03:58:38.736Z,22.90
2017-08-25T04:01:13.173Z,22.90
2017-08-25T04:03:47.629Z,22.80
2017-08-25T04:06:22.230Z,22.80
2017-08-25T04:08:56.850Z,22.90
2017-08-25T04:11:31.374Z,22.80
2017-08-25T04:14:05.867Z,22.90
2017-08-25T04:16:40.413Z,22.90
2017-08-25T04:19:14.862Z,22.90
2017-08-25T04:21:49.442Z,22.90
2017-08-25T04:24:23.797Z,22.90
2017-08-25T04:26:58.357Z,23.00
2017-08-25T04:29:32.774Z,22.90
2017-08-25T04:32:07.089Z,22.90
2017-08-25T04:34:41.765Z,22.90
2017-08-25T04:37:16.014Z,22.90
2017-08-25T04:39:50.361Z,22.90
2017-08-25T04:42:24.946Z,22.90
2017-08-25T04:44:59.365Z,22.80
2017-08-25T04:47:33.941Z,22.80
2017-08-25T04:50:10.266Z,22.80
2017-08-25T04:52:44.698Z,22.70
2017-08-25T04:55:19.241Z,22.70
2017-08-25T04:57:53.782Z,22.80
2017-08-25T05:00:28.281Z,22.80
2017-08-25T05:03:02.918Z,22.80
2017-08-25T05:05:37.486Z,22.90
2017-08-25T05:08:11.901Z,22.90
2017-08-25T05:10:46.516Z,23.00
2017-08-25T05:13:21.142Z,23.00
2017-08-25T05:15:55.762Z,23.10
2017-08-25T05:18:30.178Z,23.10
2017-08-25T05:21:05.025Z,23.10
2017-08-25T05:23:39.630Z,23.10
2017-08-25T05:26:14.301Z,23.20
2017-08-25T05:28:48.826Z,23.20
2017-08-25T05:31:23.350Z,23.20
2017-08-25T05:33:58.066Z,23.20
2017-08-25T05:36:32.521Z,23.30
2017-08-25T05:39:06.949Z,23.30
2017-08-25T05:41:41.397Z,23.30
2017-08-25T05:44:16.264Z,23.40
2017-08-25T05:46:51.157Z,23.50
2017-08-25T05:49:25.952Z,23.60
2017-08-25T05:52:00.573Z,23.80
2017-08-25T05:54:34.869Z,24.00
2017-08-25T05:57:09.387Z,24.10
2017-08-25T05:59:44.107Z,24.30
2017-08-25T06:02:18.938Z,24.40
2017-08-25T06:04:53.504Z,24.40
2017-08-25T06:07:28.042Z,24.40
2017-08-25T06:10:02.493Z,24.30
2017-08-25T06:12:37.053Z,24.40
2017-08-25T06:15:11.597Z,24.50
2017-08-25T06:17:46.181Z,24.60
2017-08-25T06:20:20.781Z,24.70
2017-08-25T06:22:55.334Z,24.80
2017-08-25T06:25:29.873Z,24.80
2017-08-25T06:28:04.521Z,24.90
2017-08-25T06:30:39.134Z,25.00
2017-08-25T06:33:13.677Z,25.00
2017-08-25T06:35:48.214Z,25.10
2017-08-25T06:38:22.830Z,25.10
2017-08-25T06:40:57.345Z,25.20
2017-08-25T06:43:31.989Z,25.20
2017-08-25T06:46:06.529Z,25.20
2017-08-25T06:48:41.282Z,25.20
2017-08-25T06:51:15.922Z,25.20
2017-08-25T06:53:50.636Z,25.30
2017-08-25T06:56:25.254Z,25.30
2017-08-25T06:58:59.991Z,25.30
2017-08-25T07:01:34.647Z,25.30
2017-08-25T07:04:09.074Z,25.30
2017-08-25T07:06:43.622Z,25.40
2017-08-25T07:09:17.882Z,25.50
2017-08-25T07:11:52.449Z,25.60
2017-08-25T07:14:27.103Z,25.90
2017-08-25T07:17:01.597Z,26.20
2017-08-25T07:19:36.050Z,26.40
2017-08-25T07:22:10.650Z,26.60
2017-08-25T07:24:45.230Z,26.80
2017-08-25T07:27:19.882Z,26.90
2017-08-25T07:29:54.422Z,27.00
2017-08-25T07:32:28.929Z,27.20
2017-08-25T07:35:06.881Z,27.30
2017-08-25T07:37:41.337Z,27.40
2017-08-25T07:40:15.925Z,27.60
2017-08-25T07:42:50.334Z,27.80
2017-08-25T07:45:24.871Z,28.00
2017-08-25T07:47:59.451Z,28.10
2017-08-25T07:50:34.039Z,28.10
2017-08-25T07:53:08.670Z,28.20
2017-08-25T07:55:43.234Z,28.40
2017-08-25T07:58:17.773Z,28.40
2017-08-25T08:00:52.361Z,28.10
2017-08-25T08:03:27.073Z,28.00
2017-08-25T08:06:01.786Z,28.20
2017-08-25T08:08:36.452Z,28.10
2017-08-25T08:11:10.992Z,28.20
2017-08-25T08:13:45.458Z,28.20
2017-08-25T08:16:20.070Z,28.20
2017-08-25T08:18:54.766Z,28.40
2017-08-25T08:21:29.313Z,28.80
2017-08-25T08:24:03.954Z,29.30
2017-08-25T08:26:38.457Z,29.60
2017-08-25T08:29:12.905Z,29.80
2017-08-25T08:31:47.447Z,29.70
2017-08-25T08:34:22.003Z,29.60
2017-08-25T08:36:56.569Z,29.60
2017-08-25T08:39:31.326Z,29.50
2017-08-25T08:42:06.575Z,29.60
2017-08-25T08:44:40.991Z,29.80
2017-08-25T08:47:15.574Z,30.10
2017-08-25T08:49:50.246Z,30.70
2017-08-25T08:52:24.865Z,31.20
2017-08-25T08:54:59.487Z,31.80
2017-08-25T08:57:33.950Z,32.30
2017-08-25T09:00:09.418Z,32.40
2017-08-25T09:02:43.901Z,32.60
2017-08-25T09:05:23.905Z,32.90
2017-08-25T09:07:58.586Z,32.80
2017-08-25T09:10:33.149Z,33.00
2017-08-25T09:13:07.722Z,33.10
2017-08-25T09:15:42.238Z,33.40
2017-08-25T09:18:16.882Z,33.60
2017-08-25T09:20:51.538Z,33.70
2017-08-25T09:23:26.015Z,34.00
2017-08-25T09:26:00.622Z,34.10
2017-08-25T09:28:35.286Z,33.90
2017-08-25T09:31:09.882Z,33.50
2017-08-25T09:33:44.550Z,33.20
2017-08-25T09:36:19.150Z,33.80
2017-08-25T09:38:53.785Z,34.20
2017-08-25T09:41:28.354Z,34.70
2017-08-25T09:44:03.022Z,34.90
2017-08-25T09:46:37.518Z,34.90
2017-08-25T09:49:12.020Z,35.10
2017-08-25T09:51:46.590Z,35.00
2017-08-25T09:54:21.167Z,35.00
2017-08-25T09:56:55.529Z,35.50
2017-08-25T09:59:29.814Z,35.50
2017-08-25T10:02:04.786Z,35.80
2017-08-25T10:04:39.310Z,36.10
2017-08-25T10:07:13.734Z,36.10
2017-08-25T10:09:48.389Z,35.80
2017-08-25T10:12:22.882Z,36.10
2017-08-25T10:14:57.442Z,35.50
2017-08-25T10:17:32.133Z,35.30
2017-08-25T10:20:13.261Z,35.10
2017-08-25T10:22:47.833Z,35.20
2017-08-25T10:25:22.381Z,35.60
2017-08-25T10:27:56.798Z,35.50
2017-08-25T10:30:31.344Z,35.20
2017-08-25T10:33:17.130Z,35.50
2017-08-25T10:36:02.630Z,35.70
2017-08-25T10:41:46.574Z,36.00
2017-08-25T10:44:32.378Z,35.90
2017-08-25T10:47:07.047Z,36.20
2017-08-25T10:49:41.677Z,35.80
2017-08-25T10:52:16.307Z,34.80
2017-08-25T10:54:50.835Z,35.20
2017-08-25T10:57:25.442Z,35.00
2017-08-25T11:00:00.094Z,34.30
2017-08-25T11:02:34.678Z,34.10
2017-08-25T11:05:10.118Z,34.40
2017-08-25T11:07:44.593Z,34.70
2017-08-25T11:10:19.197Z,34.70
2017-08-25T11:12:54.078Z,34.70
2017-08-25T11:15:28.678Z,34.40
2017-08-25T11:18:03.310Z,33.90
2017-08-25T11:20:37.850Z,34.50
2017-08-25T11:23:12.345Z,33.80
2017-08-25T11:25:46.906Z,33.50
2017-08-25T11:28:21.574Z,33.90
2017-08-25T11:30:56.013Z,34.30
2017-08-25T11:33:30.501Z,34.50
2017-08-25T11:36:05.097Z,35.00
2017-08-25T11:38:39.750Z,35.40
2017-08-25T11:41:14.395Z,35.00
2017-08-25T11:43:48.887Z,34.50
2017-08-25T11:46:23.462Z,34.10
2017-08-25T11:48:58.219Z,34.10
2017-08-25T11:51:32.901Z,34.10
2017-08-25T11:54:07.526Z,34.00
2017-08-25T11:56:42.102Z,34.10
2017-08-25T11:59:16.943Z,34.70
2017-08-25T12:01:51.489Z,34.60
2017-08-25T12:04:25.997Z,34.80
2017-08-25T12:07:00.610Z,34.20
2017-08-25T12:09:35.170Z,34.50
2017-08-25T12:12:09.717Z,34.40
2017-08-25T12:14:44.154Z,34.80
2017-08-25T12:17:18.540Z,35.20
2017-08-25T12:19:53.169Z,35.10
2017-08-25T12:22:27.719Z,35.00
2017-08-25T12:25:02.281Z,35.00
2017-08-25T12:27:36.825Z,35.20
2017-08-25T12:30:11.793Z,35.10
2017-08-25T12:32:46.418Z,35.00
2017-08-25T12:35:20.918Z,34.40
2017-08-25T12:37:55.448Z,34.70
2017-08-25T12:40:30.038Z,34.40
2017-08-25T12:43:04.790Z,34.50
2017-08-25T12:45:39.290Z,34.80
2017-08-25T12:48:13.906Z,35.10
2017-08-25T12:50:48.700Z,35.30
2017-08-25T12:53:23.241Z,35.30
2017-08-25T12:55:57.746Z,35.50
2017-08-25T12:58:32.342Z,35.80
2017-08-25T13:01:06.906Z,35.80
2017-08-25T13:03:41.358Z,35.90
2017-08-25T13:06:15.878Z,35.80
2017-08-25T13:08:50.452Z,36.00
2017-08-25T13:11:24.973Z,35.60
2017-08-25T13:13:59.514Z,35.00
2017-08-25T13:16:34.022Z,35.30
2017-08-25T13:19:08.570Z,35.50
2017-08-25T13:21:43.114Z,35.50
2017-08-25T13:24:17.666Z,35.40
2017-08-25T13:26:52.275Z,35.40
2017-08-25T13:29:26.809Z,35.50
2017-08-25T13:32:01.378Z,35.30
2017-08-25T13:34:35.853Z,35.40
2017-08-25T13:37:10.463Z,34.90
2017-08-25T13:39:45.010Z,34.70
2017-08-25T13:42:19.530Z,34.70
2017-08-25T13:44:54.170Z,34.80
2017-08-25T13:47:29.018Z,34.60
2017-08-25T13:50:07.662Z,34.50
2017-08-25T13:52:42.108Z,34.70
2017-08-25T13:55:16.670Z,34.90
2017-08-25T13:57:51.414Z,34.80
2017-08-25T14:00:26.082Z,34.30
2017-08-25T14:03:00.586Z,34.30
2017-08-25T14:05:35.166Z,33.90
2017-08-25T14:08:09.817Z,34.10
2017-08-25T14:10:44.334Z,34.30
2017-08-25T14:13:18.921Z,34.10
2017-08-25T14:15:53.418Z,34.10
2017-08-25T14:18:27.870Z,34.00
2017-08-25T14:21:02.501Z,34.10
2017-08-25T14:23:37.014Z,34.00
2017-08-25T14:26:11.524Z,34.10
2017-08-25T14:28:46.138Z,34.00
2017-08-25T14:31:20.777Z,34.00
2017-08-25T14:33:55.341Z,34.10
2017-08-25T14:36:29.902Z,33.50
2017-08-25T14:39:03.462Z,33.50
2017-08-25T14:41:38.163Z,33.60
2017-08-25T14:44:12.563Z,33.50
2017-08-25T14:46:47.126Z,33.60
2017-08-25T14:49:21.634Z,33.60
2017-08-25T14:51:56.234Z,33.60
2017-08-25T14:54:30.710Z,33.60
2017-08-25T14:57:05.282Z,33.60
2017-08-25T14:59:39.726Z,33.60
2017-08-25T15:02:14.327Z,33.20
2017-08-25T15:04:48.846Z,32.80
2017-08-25T15:07:23.446Z,32.60
2017-08-25T15:09:57.811Z,32.40
2017-08-25T15:12:32.446Z,32.40
2017-08-25T15:15:09.433Z,32.50
2017-08-25T15:17:44.094Z,32.50
2017-08-25T15:20:18.602Z,32.60
2017-08-25T15:22:53.044Z,32.40
2017-08-25T15:25:27.681Z,32.20
2017-08-25T15:28:02.350Z,32.00
2017-08-25T15:30:38.503Z,32.00
2017-08-25T15:33:12.942Z,32.00
2017-08-25T15:35:47.423Z,32.10
2017-08-25T15:38:21.998Z,32.10
2017-08-25T15:40:56.548Z,32.00
2017-08-25T15:43:31.065Z,31.80
2017-08-25T15:46:05.710Z,31.80
2017-08-25T15:48:40.159Z,31.80
2017-08-25T15:51:14.767Z,31.70
2017-08-25T15:53:49.426Z,31.70
2017-08-25T15:56:23.995Z,31.60
2017-08-25T15:58:58.541Z,31.50
2017-08-25T16:01:33.458Z,31.40
2017-08-25T16:04:08.075Z,31.30
2017-08-25T16:06:42.673Z,31.40
2017-08-25T16:09:17.218Z,31.30
2017-08-25T16:11:51.729Z,31.30
2017-08-25T16:14:26.277Z,31.20
2017-08-25T16:17:00.908Z,31.10
2017-08-25T16:19:35.471Z,31.10
2017-08-25T16:22:10.010Z,31.00
2017-08-25T16:24:44.434Z,30.90
2017-08-25T16:27:19.014Z,30.80
2017-08-25T16:29:53.450Z,30.80
2017-08-25T16:32:28.007Z,30.80
2017-08-25T16:35:02.534Z,30.70
2017-08-25T16:37:37.070Z,30.60
2017-08-25T16:40:11.721Z,30.60
2017-08-25T16:42:46.285Z,30.60
2017-08-25T16:45:20.976Z,30.50
2017-08-25T16:47:55.632Z,30.50
2017-08-25T16:50:30.230Z,30.40
2017-08-25T16:53:04.873Z,30.40
2017-08-25T16:55:39.433Z,30.30
2017-08-25T16:58:14.206Z,30.30
2017-08-25T17:00:48.670Z,30.20
2017-08-25T17:03:23.250Z,30.20
2017-08-25T17:05:57.854Z,30.10
2017-08-25T17:08:32.358Z,30.10
2017-08-25T17:11:07.006Z,30.10
2017-08-25T17:13:41.590Z,29.90
2017-08-25T17:16:16.192Z,29.90
2017-08-25T17:18:50.701Z,29.80
2017-08-25T17:21:25.303Z,29.70
2017-08-25T17:23:59.893Z,29.50
2017-08-25T17:26:34.493Z,29.40
2017-08-25T17:29:08.938Z,29.30
2017-08-25T17:31:43.550Z,29.20
2017-08-25T17:34:18.097Z,29.20
2017-08-25T17:36:52.678Z,29.00
2017-08-25T17:39:27.203Z,29.00
2017-08-25T17:42:02.138Z,28.90
2017-08-25T17:44:36.614Z,28.90
2017-08-25T17:47:11.026Z,28.90
2017-08-25T17:49:45.681Z,28.80
2017-08-25T17:52:20.302Z,28.70
2017-08-25T17:54:54.899Z,28.60
2017-08-25T17:57:29.325Z,28.40
2017-08-25T18:00:08.914Z,28.30
2017-08-25T18:02:43.346Z,28.30
2017-08-25T18:05:17.974Z,28.30
2017-08-25T18:07:52.604Z,28.10
2017-08-25T18:10:27.329Z,28.10
2017-08-25T18:13:01.893Z,28.00
2017-08-25T18:15:36.534Z,28.00
2017-08-25T18:18:10.994Z,28.00
2017-08-25T18:20:45.526Z,28.00
2017-08-25T18:23:20.241Z,27.90
2017-08-25T18:25:54.516Z,27.90
2017-08-25T18:28:29.365Z,27.80
2017-08-25T18:31:03.921Z,27.80
2017-08-25T18:33:38.402Z,27.80
2017-08-25T18:36:12.918Z,27.90
2017-08-25T18:38:47.551Z,27.80
2017-08-25T18:41:22.141Z,27.80
2017-08-25T18:43:56.805Z,27.70
2017-08-25T18:46:31.430Z,27.70
2017-08-25T18:49:05.965Z,27.70
2017-08-25T18:51:40.542Z,27.60
2017-08-25T18:54:15.302Z,27.60
2017-08-25T18:56:49.834Z,27.60
2017-08-25T18:59:24.394Z,27.50
2017-08-25T19:01:58.961Z,27.50
2017-08-25T19:04:33.405Z,27.50
2017-08-25T19:07:07.954Z,27.40
2017-08-25T19:09:42.440Z,27.40
2017-08-25T19:12:16.849Z,27.30
2017-08-25T19:14:51.415Z,27.20
2017-08-25T19:17:26.891Z,27.20
2017-08-25T19:20:01.478Z,27.20
2017-08-25T19:22:36.090Z,27.10
2017-08-25T19:25:14.218Z,27.10
2017-08-25T19:27:48.775Z,27.00
2017-08-25T19:30:23.426Z,26.90
2017-08-25T19:32:58.034Z,26.90
2017-08-25T19:35:32.590Z,26.80
2017-08-25T19:38:07.369Z,26.70
2017-08-25T19:40:42.002Z,26.50
2017-08-25T19:43:16.614Z,26.40
2017-08-25T19:45:51.106Z,26.40
2017-08-25T19:48:25.619Z,26.30
2017-08-25T19:51:00.198Z,26.20
2017-08-25T19:53:34.730Z,26.10
2017-08-25T19:56:09.305Z,26.00
2017-08-25T19:58:43.918Z,26.00
2017-08-25T20:01:18.527Z,25.90
2017-08-25T20:03:52.974Z,25.90
2017-08-25T20:06:27.507Z,25.90
2017-08-25T20:09:02.025Z,25.80
2017-08-25T20:11:36.618Z,25.80
2017-08-25T20:14:11.073Z,25.80
2017-08-25T20:16:45.666Z,25.70
2017-08-25T20:19:20.354Z,25.70
2017-08-25T20:21:54.621Z,25.60
2017-08-25T20:24:29.059Z,25.60
2017-08-25T20:27:03.819Z,25.50
2017-08-25T20:29:38.386Z,25.40
2017-08-25T20:32:12.889Z,25.30
2017-08-25T20:34:47.443Z,25.30
2017-08-25T20:37:22.012Z,25.20
2017-08-25T20:39:56.614Z,25.20
2017-08-25T20:42:31.177Z,25.10
2017-08-25T20:45:10.698Z,25.10
2017-08-25T20:47:45.153Z,25.00
2017-08-25T20:50:19.766Z,25.00
2017-08-25T20:52:54.227Z,25.00
2017-08-25T20:55:28.735Z,25.00
2017-08-25T20:58:03.230Z,25.00
2017-08-25T21:00:37.758Z,24.90
2017-08-25T21:03:12.638Z,24.90
2017-08-25T21:05:47.254Z,24.90
2017-08-25T21:08:21.792Z,24.90
2017-08-25T21:10:56.362Z,24.90
2017-08-25T21:13:31.081Z,24.90
2017-08-25T21:16:05.582Z,24.80
2017-08-25T21:18:40.253Z,24.80
2017-08-25T21:21:14.511Z,24.80
2017-08-25T21:23:49.046Z,24.70
2017-08-25T21:26:23.586Z,24.70
2017-08-25T21:28:58.222Z,24.70
2017-08-25T21:31:32.781Z,24.70
2017-08-25T21:34:07.393Z,24.60
2017-08-25T21:36:41.965Z,24.60
2017-08-25T21:39:16.382Z,24.50
2017-08-25T21:41:51.138Z,24.50
2017-08-25T21:44:25.671Z,24.40
2017-08-25T21:47:00.238Z,24.40
2017-08-25T21:49:34.601Z,24.30
2017-08-25T21:52:09.166Z,24.20
2017-08-25T21:54:43.674Z,24.20
2017-08-25T21:57:18.262Z,24.10
2017-08-25T21:59:52.794Z,24.10
2017-08-25T22:02:27.417Z,24.10
2017-08-25T22:05:01.945Z,24.00
2017-08-25T22:07:36.513Z,24.00
2017-08-25T22:10:11.142Z,24.00
2017-08-25T22:12:45.611Z,23.90
2017-08-25T22:15:20.176Z,23.90
2017-08-25T22:17:54.722Z,23.90
2017-08-25T22:20:29.239Z,23.80
2017-08-25T22:23:03.818Z,23.80
2017-08-25T22:25:38.513Z,23.80
2017-08-25T22:28:13.086Z,23.70
2017-08-25T22:30:47.714Z,23.70
2017-08-25T22:33:22.181Z,23.60
2017-08-25T22:35:56.755Z,23.50
2017-08-25T22:38:31.334Z,23.50
2017-08-25T22:41:05.985Z,23.40
2017-08-25T22:43:40.627Z,23.30
2017-08-25T22:46:15.291Z,23.30
2017-08-25T22:48:49.987Z,23.30
2017-08-25T22:51:24.109Z,23.20
2017-08-25T22:53:58.674Z,23.10
2017-08-25T22:56:33.326Z,23.10
2017-08-25T22:59:07.861Z,23.00
2017-08-25T23:01:42.457Z,22.90
2017-08-25T23:04:17.205Z,22.90
2017-08-25T23:06:51.753Z,22.80
2017-08-25T23:09:26.184Z,22.80
2017-08-25T23:12:00.927Z,22.80
2017-08-25T23:14:35.530Z,22.80
2017-08-25T23:17:10.098Z,22.80
2017-08-25T23:19:44.691Z,22.70
2017-08-25T23:22:19.241Z,22.70
2017-08-25T23:24:53.762Z,22.70
2017-08-25T23:27:28.455Z,22.70
2017-08-25T23:30:02.978Z,22.70
2017-08-25T23:32:37.561Z,22.60
2017-08-25T23:35:12.191Z,22.60
2017-08-25T23:37:46.857Z,22.50
2017-08-25T23:40:21.589Z,22.50
2017-08-25T23:42:56.217Z,22.50
2017-08-25T23:45:36.571Z,22.40
2017-08-25T23:48:11.191Z,22.40
2017-08-25T23:50:45.834Z,22.40
2017-08-25T23:53:20.371Z,22.40
2017-08-25T23:55:55.054Z,22.30
2017-08-25T23:58:29.802Z,22.30
